createdAt,value
2018-10-12T00:01:26.453Z,99362.34
2018-10-12T00:03:57.485Z,99370.25
2018-10-12T00:06:28.379Z,99365.45
2018-10-12T00:08:59.339Z,99365.93
2018-10-12T00:11:29.918Z,99363.55
2018-10-12T00:14:00.617Z,99363.42
2018-10-12T00:16:31.352Z,99367.24
2018-10-12T00:19:02.261Z,99370.25
2018-10-12T00:21:33.833Z,99363.54
2018-10-12T00:24:04.680Z,99368.20
2018-10-12T00:26:35.356Z,99361.39
2018-10-12T00:29:06.252Z,99366.77
2018-10-12T00:31:36.875Z,99356.58
2018-10-12T00:34:07.633Z,99363.16
2018-10-12T00:36:38.554Z,99356.71
2018-10-12T00:39:09.888Z,99359.69
2018-10-12T00:41:40.565Z,99359.22
2018-10-12T00:44:11.268Z,99355.73
2018-10-12T00:46:42.000Z,99355.88
2018-10-12T00:49:12.772Z,99352.78
2018-10-12T00:51:43.577Z,99357.20
2018-10-12T00:54:14.319Z,99369.98
2018-10-12T00:56:45.527Z,99364.52
2018-10-12T00:59:16.155Z,99367.02
2018-10-12T01:01:46.860Z,99366.77
2018-10-12T01:04:17.676Z,99367.75
2018-10-12T01:06:48.646Z,99365.11
2018-10-12T01:09:19.271Z,99365.11
2018-10-12T01:11:50.235Z,99368.69
2018-10-12T01:14:21.175Z,99359.37
2018-10-12T01:17:08.643Z,99356.86
2018-10-12T01:19:39.600Z,99358.99
2018-10-12T01:22:10.383Z,99356.98
2018-10-12T01:24:41.169Z,99359.70
2018-10-12T01:27:11.922Z,99363.55
2018-10-12T01:29:42.672Z,99361.40
2018-10-12T01:32:18.200Z,99368.69
2018-10-12T01:34:48.994Z,99367.62
2018-10-12T01:37:19.736Z,99367.48
2018-10-12T01:39:50.969Z,99360.30
2018-10-12T01:42:22.376Z,99358.39
2018-10-12T01:44:54.106Z,99359.23
2018-10-12T01:47:24.805Z,99351.47
2018-10-12T01:49:55.865Z,99354.44
2018-10-12T01:52:26.536Z,99355.16
2018-10-12T01:54:57.295Z,99356.00
2018-10-12T01:57:28.060Z,99349.05
2018-10-12T01:59:58.833Z,99356.23
2018-10-12T02:02:29.726Z,99355.64
2018-10-12T02:05:00.520Z,99355.30
2018-10-12T02:07:31.269Z,99352.90
2018-10-12T02:10:02.000Z,99355.77
2018-10-12T02:12:32.908Z,99355.89
2018-10-12T02:15:03.780Z,99357.20
2018-10-12T02:17:34.728Z,99359.23
2018-10-12T02:20:05.425Z,99354.81
2018-10-12T02:22:36.556Z,99353.73
2018-10-12T02:25:08.430Z,99354.33
2018-10-12T02:27:39.361Z,99360.56
2018-10-12T02:30:10.993Z,99368.69
2018-10-12T02:32:41.762Z,99370.60
2018-10-12T02:35:12.479Z,99369.88
2018-10-12T02:37:43.222Z,99370.39
2018-10-12T02:40:14.145Z,99376.70
2018-10-12T02:42:44.941Z,99378.02
2018-10-12T02:45:15.627Z,99378.61
2018-10-12T02:47:46.356Z,99383.65
2018-10-12T02:50:17.253Z,99382.69
2018-10-12T02:52:47.905Z,99378.73
2018-10-12T02:55:18.650Z,99383.39
2018-10-12T02:57:49.392Z,99382.92
2018-10-12T03:00:20.303Z,99386.87
2018-10-12T03:02:51.003Z,99393.32
2018-10-12T03:05:21.825Z,99394.88
2018-10-12T03:07:52.613Z,99393.43
2018-10-12T03:10:23.471Z,99390.81
2018-10-12T03:12:54.400Z,99395.95
2018-10-12T03:15:25.261Z,99400.23
2018-10-12T03:17:56.292Z,99399.87
2018-10-12T03:20:27.260Z,99395.23
2018-10-12T03:22:58.070Z,99406.21
2018-10-12T03:25:29.072Z,99409.69
2018-10-12T03:28:16.240Z,99408.61
2018-10-12T03:30:47.162Z,99409.43
2018-10-12T03:33:17.945Z,99405.98
2018-10-12T03:35:49.433Z,99400.81
2018-10-12T03:38:20.164Z,99396.28
2018-10-12T03:40:50.966Z,99401.20
2018-10-12T03:43:21.700Z,99406.46
2018-10-12T03:45:52.449Z,99406.22
2018-10-12T03:48:23.322Z,99412.80
2018-10-12T03:50:54.296Z,99407.66
2018-10-12T03:53:25.304Z,99411.14
2018-10-12T03:55:56.097Z,99415.31
2018-10-12T03:58:26.784Z,99418.20
2018-10-12T04:01:04.171Z,99425.62
2018-10-12T04:03:36.004Z,99420.61
2018-10-12T04:06:06.913Z,99417.73
2018-10-12T04:08:37.825Z,99415.83
2018-10-12T04:11:09.004Z,99422.64
2018-10-12T04:13:39.803Z,99431.38
2018-10-12T04:16:10.815Z,99429.09
2018-10-12T04:18:41.955Z,99426.36
2018-10-12T04:21:13.040Z,99427.89
2018-10-12T04:23:44.119Z,99424.31
2018-10-12T04:26:14.948Z,99422.02
2018-10-12T04:28:45.781Z,99422.16
2018-10-12T04:31:16.441Z,99424.44
2018-10-12T04:33:47.151Z,99429.46
2018-10-12T04:36:17.930Z,99428.37
2018-10-12T04:39:05.743Z,99427.91
2018-10-12T04:41:36.703Z,99427.05
2018-10-12T04:44:08.056Z,99428.80
2018-10-12T04:46:43.129Z,99438.48
2018-10-12T04:49:16.916Z,99436.55
2018-10-12T04:52:02.361Z,99439.64
2018-10-12T04:54:33.140Z,99444.06
2018-10-12T04:57:04.297Z,99443.80
2018-10-12T04:59:34.927Z,99442.62
2018-10-12T05:02:07.557Z,99447.87
2018-10-12T05:04:38.556Z,99447.99
2018-10-12T05:07:09.569Z,99453.59
2018-10-12T05:09:40.615Z,99456.48
2018-10-12T05:12:11.375Z,99455.41
2018-10-12T05:14:42.193Z,99461.27
2018-10-12T05:17:13.199Z,99461.78
2018-10-12T05:19:43.906Z,99467.76
2018-10-12T05:22:14.770Z,99464.75
2018-10-12T05:24:45.602Z,99470.39
2018-10-12T05:27:16.499Z,99467.84
2018-10-12T05:29:47.318Z,99472.52
2018-10-12T05:32:18.558Z,99471.33
2018-10-12T05:34:49.363Z,99475.52
2018-10-12T05:37:20.329Z,99474.20
2018-10-12T05:39:51.070Z,99474.67
2018-10-12T05:42:21.778Z,99479.09
2018-10-12T05:44:52.571Z,99483.41
2018-10-12T05:47:23.368Z,99494.31
2018-10-12T05:50:05.153Z,99493.50
2018-10-12T05:52:37.045Z,99499.14
2018-10-12T05:55:08.212Z,99501.80
2018-10-12T05:57:42.365Z,99500.73
2018-10-12T06:00:14.213Z,99503.27
2018-10-12T06:02:45.108Z,99501.95
2018-10-12T06:05:15.990Z,99499.69
2018-10-12T06:07:47.338Z,99502.30
2018-10-12T06:10:18.262Z,99510.59
2018-10-12T06:12:49.245Z,99504.95
2018-10-12T06:15:20.401Z,99507.56
2018-10-12T06:17:51.306Z,99515.13
2018-10-12T06:20:23.023Z,99517.00
2018-10-12T06:22:54.063Z,99525.38
2018-10-12T06:25:24.937Z,99529.59
2018-10-12T06:27:55.857Z,99525.95
2018-10-12T06:30:26.650Z,99527.83
2018-10-12T06:32:57.490Z,99527.45
2018-10-12T06:35:28.917Z,99524.38
2018-10-12T06:38:00.489Z,99523.83
2018-10-12T06:40:32.060Z,99537.08
2018-10-12T06:43:03.054Z,99539.72
2018-10-12T06:45:33.941Z,99543.27
2018-10-12T06:48:05.057Z,99546.80
2018-10-12T06:50:36.547Z,99546.84
2018-10-12T06:53:07.822Z,99548.76
2018-10-12T06:55:39.153Z,99547.75
2018-10-12T06:58:10.509Z,99554.86
2018-10-12T07:00:42.184Z,99562.86
2018-10-12T07:03:22.121Z,99556.05
2018-10-12T07:05:53.407Z,99554.67
2018-10-12T07:08:24.667Z,99562.80
2018-10-12T07:10:55.475Z,99566.78
2018-10-12T07:13:26.186Z,99564.91
2018-10-12T07:15:57.092Z,99566.80
2018-10-12T07:18:28.001Z,99562.31
2018-10-12T07:20:59.749Z,99565.59
2018-10-12T07:23:30.257Z,99570.00
2018-10-12T07:26:02.417Z,99573.27
2018-10-12T07:28:33.547Z,99568.30
2018-10-12T07:31:05.429Z,99570.06
2018-10-12T07:33:36.461Z,99572.16
2018-10-12T07:36:07.625Z,99579.77
2018-10-12T07:38:38.315Z,99585.37
2018-10-12T07:41:09.534Z,99586.30
2018-10-12T07:43:40.581Z,99582.36
2018-10-12T07:46:11.893Z,99580.13
2018-10-12T07:48:42.709Z,99584.49
2018-10-12T07:51:13.753Z,99592.94
2018-10-12T07:53:44.748Z,99593.80
2018-10-12T07:56:15.975Z,99592.44
2018-10-12T07:58:47.296Z,99582.90
2018-10-12T08:01:18.483Z,99595.31
2018-10-12T08:03:49.391Z,99589.33
2018-10-12T08:06:20.595Z,99594.52
2018-10-12T08:08:51.816Z,99596.09
2018-10-12T08:11:23.111Z,99593.95
2018-10-12T08:13:54.166Z,99595.02
2018-10-12T08:16:25.133Z,99594.80
2018-10-12T08:18:56.198Z,99597.25
2018-10-12T08:21:27.063Z,99602.14
2018-10-12T08:23:57.939Z,99604.21
2018-10-12T08:26:29.268Z,99609.36
2018-10-12T08:29:00.178Z,99604.10
2018-10-12T08:31:32.215Z,99607.77
2018-10-12T08:34:03.473Z,99612.56
2018-10-12T08:36:34.707Z,99622.72
2018-10-12T08:39:08.429Z,99613.98
2018-10-12T08:41:39.304Z,99625.30
2018-10-12T08:44:10.165Z,99615.44
2018-10-12T08:46:40.961Z,99616.68
2018-10-12T08:49:11.768Z,99617.20
2018-10-12T08:51:42.461Z,99616.04
2018-10-12T08:54:13.212Z,99622.48
2018-10-12T08:56:44.027Z,99611.00
2018-10-12T08:59:14.985Z,99621.39
2018-10-12T09:01:45.852Z,99617.79
2018-10-12T09:04:16.735Z,99623.09
2018-10-12T09:06:47.972Z,99617.98
2018-10-12T09:09:18.819Z,99621.72
2018-10-12T09:11:49.729Z,99619.41
2018-10-12T09:14:20.459Z,99624.38
2018-10-12T09:16:51.322Z,99614.52
2018-10-12T09:19:22.045Z,99622.68
2018-10-12T09:21:53.819Z,99613.75
2018-10-12T09:24:25.583Z,99623.97
2018-10-12T09:26:57.185Z,99625.41
2018-10-12T09:29:28.092Z,99623.64
2018-10-12T09:31:59.638Z,99623.93
2018-10-12T09:34:30.355Z,99625.45
2018-10-12T09:37:02.287Z,99622.38
2018-10-12T09:39:33.099Z,99629.42
2018-10-12T09:42:04.009Z,99632.20
2018-10-12T09:44:34.806Z,99624.91
2018-10-12T09:47:05.606Z,99626.03
2018-10-12T09:49:36.532Z,99630.98
2018-10-12T09:52:07.389Z,99631.20
2018-10-12T09:54:38.017Z,99616.11
2018-10-12T09:57:14.277Z,99625.95
2018-10-12T09:59:45.328Z,99620.37
2018-10-12T10:02:21.823Z,99624.31
2018-10-12T10:04:52.969Z,99624.50
2018-10-12T10:07:23.884Z,99626.09
2018-10-12T10:09:54.576Z,99616.02
2018-10-12T10:12:25.534Z,99608.55
2018-10-12T10:14:56.324Z,99610.09
2018-10-12T10:17:27.154Z,99610.94
2018-10-12T10:19:58.205Z,99607.74
2018-10-12T10:22:29.471Z,99609.00
2018-10-12T10:25:00.310Z,99600.39
2018-10-12T10:27:31.223Z,99601.97
2018-10-12T10:30:02.493Z,99599.44
2018-10-12T10:32:33.371Z,99598.02
2018-10-12T10:35:04.540Z,99596.17
2018-10-12T10:37:37.141Z,99595.68
2018-10-12T10:40:08.358Z,99590.19
2018-10-12T10:42:39.383Z,99589.09
2018-10-12T10:45:11.175Z,99581.04
2018-10-12T10:47:42.674Z,99579.28
2018-10-12T10:50:14.048Z,99580.08
2018-10-12T10:52:45.296Z,99581.32
2018-10-12T10:55:16.425Z,99574.97
2018-10-12T10:57:47.317Z,99575.25
2018-10-12T11:00:18.244Z,99568.49
2018-10-12T11:02:49.305Z,99574.47
2018-10-12T11:05:20.308Z,99569.61
2018-10-12T11:07:51.367Z,99567.73
2018-10-12T11:10:22.385Z,99564.44
2018-10-12T11:12:53.276Z,99562.55
2018-10-12T11:15:24.243Z,99557.14
2018-10-12T11:17:55.346Z,99553.68
2018-10-12T11:20:26.375Z,99548.86
2018-10-12T11:22:57.483Z,99550.36
2018-10-12T11:25:28.992Z,99539.27
2018-10-12T11:27:59.921Z,99545.97
2018-10-12T11:30:31.539Z,99534.75
2018-10-12T11:33:03.664Z,99537.86
2018-10-12T11:35:34.736Z,99538.47
2018-10-12T11:38:05.861Z,99538.20
2018-10-12T11:40:36.915Z,99524.97
2018-10-12T11:43:23.260Z,99524.05
2018-10-12T11:45:55.182Z,99524.95
2018-10-12T11:48:25.874Z,99519.15
2018-10-12T11:50:57.331Z,99516.50
2018-10-12T11:53:28.169Z,99519.39
2018-10-12T11:55:58.917Z,99519.13
2018-10-12T11:58:29.939Z,99511.13
2018-10-12T12:01:01.008Z,99508.50
2018-10-12T12:03:31.909Z,99516.42
2018-10-12T12:06:02.731Z,99514.46
2018-10-12T12:08:34.311Z,99513.51
2018-10-12T12:11:05.049Z,99509.89
2018-10-12T12:13:36.185Z,99514.38
2018-10-12T12:16:07.497Z,99511.47
2018-10-12T12:18:39.019Z,99502.12
2018-10-12T12:21:11.530Z,99503.30
2018-10-12T12:23:42.310Z,99503.95
2018-10-12T12:26:13.284Z,99509.50
2018-10-12T12:28:45.172Z,99501.62
2018-10-12T12:31:15.865Z,99498.74
2018-10-12T12:33:47.173Z,99500.36
2018-10-12T12:36:18.472Z,99494.73
2018-10-12T12:38:49.821Z,99492.05
2018-10-12T12:41:20.728Z,99490.67
2018-10-12T12:43:51.888Z,99487.36
2018-10-12T12:46:23.855Z,99484.08
2018-10-12T12:48:55.518Z,99480.02
2018-10-12T12:51:26.181Z,99482.98
2018-10-12T12:53:57.537Z,99482.36
2018-10-12T12:56:28.837Z,99476.88
2018-10-12T12:58:59.821Z,99479.58
2018-10-12T13:01:30.687Z,99476.50
2018-10-12T13:04:01.639Z,99478.03
2018-10-12T13:06:32.975Z,99473.38
2018-10-12T13:09:05.167Z,99471.45
2018-10-12T13:11:36.301Z,99462.27
2018-10-12T13:14:07.514Z,99468.09
2018-10-12T13:16:39.024Z,99468.36
2018-10-12T13:19:10.028Z,99466.59
2018-10-12T13:21:42.606Z,99468.37
2018-10-12T13:24:13.936Z,99460.56
2018-10-12T13:26:45.088Z,99464.80
2018-10-12T13:29:16.094Z,99463.09
2018-10-12T13:31:47.370Z,99461.25
2018-10-12T13:34:18.572Z,99451.27
2018-10-12T13:36:49.541Z,99450.70
2018-10-12T13:39:20.667Z,99451.53
2018-10-12T13:41:51.655Z,99459.36
2018-10-12T13:44:23.218Z,99448.19
2018-10-12T13:46:55.255Z,99449.29
2018-10-12T13:49:26.544Z,99442.26
2018-10-12T13:51:57.656Z,99451.73
2018-10-12T13:54:28.776Z,99447.55
2018-10-12T13:57:01.291Z,99444.52
2018-10-12T13:59:32.662Z,99446.48
2018-10-12T14:02:04.562Z,99444.55
2018-10-12T14:04:35.764Z,99437.89
2018-10-12T14:07:06.732Z,99435.83
2018-10-12T14:09:37.868Z,99439.04
2018-10-12T14:12:10.780Z,99431.75
2018-10-12T14:14:42.801Z,99429.84
2018-10-12T14:17:15.032Z,99429.19
2018-10-12T14:19:46.261Z,99427.76
2018-10-12T14:22:17.168Z,99431.30
2018-10-12T14:24:48.473Z,99432.96
2018-10-12T14:27:20.070Z,99422.13
2018-10-12T14:29:51.868Z,99429.05
2018-10-12T14:32:27.272Z,99431.63
2018-10-12T14:34:58.613Z,99429.98
2018-10-12T14:37:29.864Z,99427.44
2018-10-12T14:40:02.206Z,99429.27
2018-10-12T14:42:33.771Z,99418.30
2018-10-12T14:45:05.413Z,99419.16
2018-10-12T14:47:37.219Z,99423.14
2018-10-12T14:50:08.495Z,99416.14
2018-10-12T14:52:39.730Z,99416.23
2018-10-12T14:55:11.083Z,99416.59
2018-10-12T14:57:42.226Z,99416.28
2018-10-12T15:00:15.060Z,99416.95
2018-10-12T15:02:46.928Z,99410.62
2018-10-12T15:05:20.817Z,99413.83
2018-10-12T15:07:52.831Z,99406.00
2018-10-12T15:10:26.999Z,99417.38
2018-10-12T15:12:58.398Z,99407.69
2018-10-12T15:15:32.073Z,99414.72
2018-10-12T15:18:03.381Z,99417.98
2018-10-12T15:20:35.315Z,99413.33
2018-10-12T15:23:07.352Z,99421.55
2018-10-12T15:25:40.772Z,99423.21
2018-10-12T15:28:13.664Z,99418.84
2018-10-12T15:30:47.120Z,99422.05
2018-10-12T15:33:22.397Z,99420.70
2018-10-12T15:35:55.856Z,99412.12
2018-10-12T15:38:28.608Z,99419.13
2018-10-12T15:41:00.676Z,99419.95
2018-10-12T15:43:34.670Z,99420.86
2018-10-12T15:46:08.888Z,99422.36
2018-10-12T15:48:41.408Z,99428.46
2018-10-12T15:51:13.958Z,99424.80
2018-10-12T15:53:46.291Z,99425.86
2018-10-12T15:56:18.694Z,99427.06
2018-10-12T15:58:50.849Z,99419.67
2018-10-12T16:01:24.303Z,99423.45
2018-10-12T16:03:56.846Z,99434.10
2018-10-12T16:06:29.314Z,99429.50
2018-10-12T16:09:02.314Z,99430.82
2018-10-12T16:11:34.842Z,99426.45
2018-10-12T16:14:07.078Z,99425.39
2018-10-12T16:16:39.424Z,99424.98
2018-10-12T16:19:11.798Z,99424.66
2018-10-12T16:21:44.232Z,99423.78
2018-10-12T16:24:16.701Z,99428.16
2018-10-12T16:26:49.090Z,99433.91
2018-10-12T16:29:21.681Z,99435.25
2018-10-12T16:31:54.666Z,99436.86
2018-10-12T16:34:26.983Z,99436.18
2018-10-12T16:36:59.519Z,99442.31
2018-10-12T16:39:31.931Z,99445.09
2018-10-12T16:42:05.742Z,99446.09
2018-10-12T16:44:38.999Z,99448.66
2018-10-12T16:47:11.735Z,99441.59
2018-10-12T16:49:44.661Z,99441.17
2018-10-12T16:52:18.450Z,99451.05
2018-10-12T16:54:51.725Z,99447.09
2018-10-12T16:57:32.131Z,99455.41
2018-10-12T17:00:04.508Z,99463.99
2018-10-12T17:02:37.340Z,99469.53
2018-10-12T17:05:10.104Z,99473.71
2018-10-12T17:07:42.856Z,99476.81
2018-10-12T17:10:15.189Z,99481.98
2018-10-12T17:12:47.949Z,99486.55
2018-10-12T17:15:22.819Z,99484.65
2018-10-12T17:17:57.013Z,99487.58
2018-10-12T17:20:29.797Z,99490.02
2018-10-12T17:23:03.452Z,99491.56
2018-10-12T17:25:36.536Z,99492.95
2018-10-12T17:28:09.713Z,99495.75
2018-10-12T17:30:42.181Z,99491.73
2018-10-12T17:33:14.465Z,99500.80
2018-10-12T17:35:47.512Z,99498.52
2018-10-12T17:38:20.312Z,99506.59
2018-10-12T17:40:53.723Z,99506.50
2018-10-12T17:43:26.615Z,99515.25
2018-10-12T17:45:59.719Z,99519.14
2018-10-12T17:48:32.509Z,99525.12
2018-10-12T17:51:05.973Z,99522.64
2018-10-12T17:53:38.748Z,99533.67
2018-10-12T17:56:11.045Z,99541.19
2018-10-12T17:58:44.214Z,99538.10
2018-10-12T18:01:17.620Z,99539.09
2018-10-12T18:03:50.386Z,99545.00
2018-10-12T18:06:22.920Z,99540.12
2018-10-12T18:08:55.770Z,99543.78
2018-10-12T18:11:28.825Z,99538.11
2018-10-12T18:14:04.793Z,99549.81
2018-10-12T18:16:37.771Z,99548.66
2018-10-12T18:19:10.718Z,99553.31
2018-10-12T18:21:44.723Z,99547.38
2018-10-12T18:24:18.498Z,99556.78
2018-10-12T18:26:53.091Z,99560.50
2018-10-12T18:29:25.939Z,99559.25
2018-10-12T18:31:58.779Z,99568.79
2018-10-12T18:34:31.624Z,99575.81
2018-10-12T18:37:05.147Z,99573.70
2018-10-12T18:39:38.197Z,99575.73
2018-10-12T18:42:10.526Z,99573.71
2018-10-12T18:44:43.196Z,99576.35
2018-10-12T18:47:16.265Z,99571.69
2018-10-12T18:49:48.804Z,99574.94
2018-10-12T18:52:21.540Z,99574.97
2018-10-12T18:54:54.216Z,99577.55
2018-10-12T18:57:26.835Z,99580.33
2018-10-12T19:00:01.451Z,99582.66
2018-10-12T19:02:34.630Z,99576.80
2018-10-12T19:05:07.703Z,99581.13
2018-10-12T19:07:40.617Z,99582.94
2018-10-12T19:10:14.270Z,99586.20
2018-10-12T19:12:49.073Z,99580.84
2018-10-12T19:15:24.749Z,99580.84
2018-10-12T19:17:59.633Z,99583.36
2018-10-12T19:20:33.143Z,99577.73
2018-10-12T19:23:06.633Z,99572.92
2018-10-12T19:25:40.972Z,99582.50
2018-10-12T19:28:14.486Z,99584.80
2018-10-12T19:30:48.611Z,99580.95
2018-10-12T19:33:24.198Z,99585.27
2018-10-12T19:35:58.112Z,99589.72
2018-10-12T19:38:31.785Z,99591.02
2018-10-12T19:41:07.052Z,99593.06
2018-10-12T19:43:39.946Z,99595.46
2018-10-12T19:46:14.333Z,99597.73
2018-10-12T19:48:47.134Z,99595.81
2018-10-12T19:51:21.188Z,99605.51
2018-10-12T19:53:54.564Z,99609.21
2018-10-12T19:56:28.408Z,99605.11
2018-10-12T19:59:01.479Z,99609.65
2018-10-12T20:01:35.144Z,99606.30
2018-10-12T20:04:08.632Z,99613.97
2018-10-12T20:06:42.341Z,99608.08
2018-10-12T20:09:15.445Z,99609.27
2018-10-12T20:11:48.829Z,99619.41
2018-10-12T20:14:21.839Z,99619.61
2018-10-12T20:16:55.475Z,99624.11
2018-10-12T20:19:28.389Z,99619.94
2018-10-12T20:22:01.348Z,99626.10
2018-10-12T20:24:34.357Z,99630.03
2018-10-12T20:27:09.342Z,99625.31
2018-10-12T20:29:42.056Z,99626.87
2018-10-12T20:32:17.969Z,99623.73
2018-10-12T20:34:50.856Z,99628.37
2018-10-12T20:37:23.650Z,99629.30
2018-10-12T20:39:56.840Z,99624.86
2018-10-12T20:42:30.366Z,99626.04
2018-10-12T20:45:02.812Z,99625.11
2018-10-12T20:47:35.824Z,99622.58
2018-10-12T20:50:08.438Z,99628.19
2018-10-12T20:52:41.839Z,99630.81
2018-10-12T20:55:14.316Z,99628.19
2018-10-12T20:57:48.498Z,99628.80
2018-10-12T21:00:21.859Z,99637.41
2018-10-12T21:02:55.278Z,99642.31
2018-10-12T21:05:27.704Z,99635.51
2018-10-12T21:08:01.757Z,99638.84
2018-10-12T21:10:34.517Z,99638.90
2018-10-12T21:13:07.991Z,99635.31
2018-10-12T21:15:41.313Z,99637.82
2018-10-12T21:18:14.874Z,99634.08
2018-10-12T21:20:47.266Z,99628.68
2018-10-12T21:23:20.232Z,99634.11
2018-10-12T21:25:53.060Z,99633.46
2018-10-12T21:28:26.364Z,99631.61
2018-10-12T21:30:59.577Z,99630.53
2018-10-12T21:33:32.419Z,99629.95
2018-10-12T21:36:04.194Z,99627.33
2018-10-12T21:38:35.980Z,99625.58
2018-10-12T21:41:07.496Z,99615.19
2018-10-12T21:43:38.579Z,99620.59
2018-10-12T21:46:09.917Z,99621.15
2018-10-12T21:48:41.476Z,99618.67
2018-10-12T21:51:14.370Z,99617.06
2018-10-12T21:53:45.821Z,99620.17
2018-10-12T21:56:16.898Z,99620.56
2018-10-12T21:58:48.396Z,99621.59
2018-10-12T22:01:20.509Z,99615.22
2018-10-12T22:03:52.613Z,99620.77
2018-10-12T22:06:24.438Z,99611.84
2018-10-12T22:09:01.066Z,99611.05
2018-10-12T22:11:31.861Z,99610.55
2018-10-12T22:14:04.199Z,99617.70
2018-10-12T22:16:35.267Z,99619.91
2018-10-12T22:19:07.988Z,99621.60
2018-10-12T22:21:39.757Z,99616.86
2018-10-12T22:24:10.866Z,99617.89
2018-10-12T22:26:41.665Z,99612.34
2018-10-12T22:29:12.561Z,99613.34
2018-10-12T22:31:43.299Z,99614.50
2018-10-12T22:34:14.494Z,99614.07
2018-10-12T22:36:45.741Z,99612.72
2018-10-12T22:39:17.745Z,99616.61
2018-10-12T22:41:48.542Z,99617.27
2018-10-12T22:44:19.551Z,99616.37
2018-10-12T22:46:50.309Z,99603.25
2018-10-12T22:49:21.082Z,99606.91
2018-10-12T22:51:51.944Z,99606.29
2018-10-12T22:54:29.236Z,99607.47
2018-10-12T22:57:00.296Z,99603.16
2018-10-12T22:59:32.556Z,99605.58
2018-10-12T23:02:03.374Z,99606.55
2018-10-12T23:04:34.125Z,99609.17
2018-10-12T23:07:05.024Z,99606.16
2018-10-12T23:09:36.082Z,99611.34
2018-10-12T23:12:08.453Z,99617.30
2018-10-12T23:14:39.524Z,99612.52
2018-10-12T23:17:10.385Z,99617.77
2018-10-12T23:19:41.161Z,99620.22
2018-10-12T23:22:13.080Z,99619.59
2018-10-12T23:24:44.087Z,99617.84
2018-10-12T23:27:14.800Z,99613.11
2018-10-12T23:29:45.599Z,99607.07
2018-10-12T23:32:16.817Z,99608.55
2018-10-12T23:34:48.722Z,99610.59
2018-10-12T23:37:19.598Z,99614.02
2018-10-12T23:39:50.589Z,99611.13
2018-10-12T23:42:21.478Z,99613.69
2018-10-12T23:44:52.215Z,99614.64
2018-10-12T23:47:23.064Z,99621.77
2018-10-12T23:49:53.745Z,99616.03
2018-10-12T23:52:31.206Z,99617.39
2018-10-12T23:55:02.268Z,99618.47
2018-10-12T23:57:33.230Z,99612.73
